createdAt,value
2019-02-20T00:02:25.185Z,87.20
2019-02-20T00:04:52.764Z,87.40
2019-02-20T00:07:20.353Z,87.90
2019-02-20T00:09:48.008Z,87.90
2019-02-20T00:12:15.591Z,87.90
2019-02-20T00:14:43.931Z,88.00
2019-02-20T00:17:11.545Z,87.90
2019-02-20T00:19:39.130Z,87.80
2019-02-20T00:22:06.718Z,87.80
2019-02-20T00:24:34.337Z,87.60
2019-02-20T00:27:01.913Z,87.70
2019-02-20T00:29:29.505Z,87.60
2019-02-20T00:31:57.127Z,87.60
2019-02-20T00:34:24.694Z,87.60
2019-02-20T00:36:52.681Z,87.70
2019-02-20T00:39:20.345Z,87.50
2019-02-20T00:41:47.893Z,87.30
2019-02-20T00:44:17.926Z,87.50
2019-02-20T00:47:03.503Z,87.60
2019-02-20T00:49:31.083Z,87.60
2019-02-20T00:51:58.656Z,87.80
2019-02-20T00:54:26.270Z,87.90
2019-02-20T00:56:53.845Z,88.00
2019-02-20T00:59:21.461Z,88.20
2019-02-20T01:01:49.043Z,88.40
2019-02-20T01:04:17.383Z,88.20
2019-02-20T01:06:45.312Z,87.40
2019-02-20T01:09:13.335Z,86.50
2019-02-20T01:11:40.884Z,86.70
2019-02-20T01:14:08.462Z,87.30
2019-02-20T01:16:36.849Z,87.50
2019-02-20T01:19:04.426Z,87.60
2019-02-20T01:21:32.095Z,87.80
2019-02-20T01:23:59.622Z,87.90
2019-02-20T01:26:27.213Z,87.90
2019-02-20T01:28:54.792Z,88.00
2019-02-20T01:31:22.702Z,88.10
2019-02-20T01:33:50.279Z,88.40
2019-02-20T01:36:17.879Z,88.70
2019-02-20T01:38:46.221Z,88.60
2019-02-20T01:41:14.570Z,87.90
2019-02-20T01:43:43.274Z,88.50
2019-02-20T01:46:10.896Z,88.40
2019-02-20T01:48:38.484Z,88.40
2019-02-20T01:51:06.071Z,88.60
2019-02-20T01:53:33.942Z,88.80
2019-02-20T01:56:01.547Z,88.70
2019-02-20T01:58:29.121Z,88.60
2019-02-20T02:00:56.746Z,88.00
2019-02-20T02:03:24.312Z,87.80
2019-02-20T02:05:51.895Z,87.40
2019-02-20T02:08:19.495Z,87.10
2019-02-20T02:10:47.074Z,87.30
2019-02-20T02:13:15.419Z,88.10
2019-02-20T02:15:43.046Z,87.40
2019-02-20T02:18:10.632Z,87.80
2019-02-20T02:20:38.218Z,88.10
2019-02-20T02:23:05.836Z,88.40
2019-02-20T02:25:33.417Z,88.10
2019-02-20T02:28:00.996Z,88.30
2019-02-20T02:30:28.614Z,88.60
2019-02-20T02:32:57.352Z,88.70
2019-02-20T02:35:23.781Z,88.70
2019-02-20T02:37:51.398Z,89.00
2019-02-20T02:40:18.979Z,88.90
2019-02-20T02:42:46.567Z,89.90
2019-02-20T02:45:14.184Z,89.40
2019-02-20T02:47:41.774Z,89.60
2019-02-20T02:50:09.363Z,89.70
2019-02-20T02:52:36.978Z,89.90
2019-02-20T02:55:04.574Z,90.00
2019-02-20T02:57:32.168Z,90.00
2019-02-20T02:59:59.800Z,90.10
2019-02-20T03:02:27.384Z,90.30
2019-02-20T03:04:54.969Z,90.00
2019-02-20T03:07:23.344Z,90.00
2019-02-20T03:09:51.696Z,90.00
2019-02-20T03:12:19.279Z,90.00
2019-02-20T03:14:47.662Z,90.20
2019-02-20T03:17:16.005Z,90.30
2019-02-20T03:19:43.590Z,90.20
2019-02-20T03:22:11.566Z,90.40
2019-02-20T03:24:39.149Z,90.50
2019-02-20T03:27:06.735Z,90.60
2019-02-20T03:29:34.347Z,90.70
2019-02-20T03:32:01.949Z,90.70
2019-02-20T03:34:29.530Z,90.70
2019-02-20T03:36:57.165Z,90.80
2019-02-20T03:39:24.745Z,90.90
2019-02-20T03:41:52.326Z,91.00
2019-02-20T03:44:20.834Z,91.20
2019-02-20T03:46:48.447Z,91.30
2019-02-20T03:49:16.764Z,91.50
2019-02-20T03:51:44.432Z,91.50
2019-02-20T03:54:11.987Z,91.50
2019-02-20T03:56:39.577Z,92.30
2019-02-20T03:59:07.959Z,92.50
2019-02-20T04:01:35.544Z,92.50
2019-02-20T04:04:03.150Z,92.20
2019-02-20T04:06:31.242Z,92.30
2019-02-20T04:08:58.826Z,92.40
2019-02-20T04:11:27.181Z,92.50
2019-02-20T04:13:54.792Z,92.50
2019-02-20T04:16:22.381Z,92.60
2019-02-20T04:18:49.986Z,92.80
2019-02-20T04:21:17.611Z,92.90
2019-02-20T04:23:45.669Z,93.60
2019-02-20T04:26:13.257Z,93.10
2019-02-20T04:28:40.886Z,93.50
2019-02-20T04:31:08.487Z,93.20
2019-02-20T04:33:36.054Z,93.20
2019-02-20T04:36:03.668Z,93.20
2019-02-20T04:38:31.290Z,93.30
2019-02-20T04:40:58.856Z,93.40
2019-02-20T04:43:27.239Z,93.40
2019-02-20T04:45:54.819Z,93.40
2019-02-20T04:48:22.433Z,93.40
2019-02-20T04:50:50.383Z,93.40
2019-02-20T04:53:18.297Z,93.40
2019-02-20T04:55:46.646Z,93.20
2019-02-20T04:58:20.460Z,93.20
2019-02-20T05:00:48.069Z,93.20
2019-02-20T05:03:15.725Z,93.30
2019-02-20T05:05:43.272Z,93.00
2019-02-20T05:08:11.639Z,92.60
2019-02-20T05:10:39.212Z,92.60
2019-02-20T05:13:07.969Z,92.90
2019-02-20T05:15:35.574Z,92.90
2019-02-20T05:18:03.907Z,93.00
2019-02-20T05:20:31.534Z,93.00
2019-02-20T05:22:59.114Z,93.00
2019-02-20T05:25:26.693Z,93.10
2019-02-20T05:27:54.313Z,93.00
2019-02-20T05:30:21.902Z,93.10
2019-02-20T05:32:49.498Z,93.10
2019-02-20T05:35:17.664Z,93.10
2019-02-20T05:37:45.250Z,93.30
2019-02-20T05:40:12.842Z,93.40
2019-02-20T05:42:40.472Z,93.70
2019-02-20T05:45:08.039Z,93.20
2019-02-20T05:47:36.674Z,92.90
2019-02-20T05:50:04.292Z,92.90
2019-02-20T05:52:32.935Z,92.90
2019-02-20T05:55:00.521Z,92.90
2019-02-20T05:57:28.916Z,92.90
2019-02-20T05:59:57.255Z,92.60
2019-02-20T06:02:24.837Z,92.60
2019-02-20T06:04:52.700Z,92.70
2019-02-20T06:07:20.298Z,92.80
2019-02-20T06:09:47.882Z,92.80
2019-02-20T06:12:15.499Z,92.80
2019-02-20T06:14:43.845Z,92.80
2019-02-20T06:17:11.422Z,92.80
2019-02-20T06:19:39.395Z,92.90
2019-02-20T06:22:06.980Z,93.00
2019-02-20T06:24:43.926Z,93.00
2019-02-20T06:27:02.973Z,93.00
2019-02-20T06:29:30.601Z,93.00
2019-02-20T06:31:58.198Z,93.40
2019-02-20T06:34:25.812Z,93.00
2019-02-20T06:36:54.164Z,93.10
2019-02-20T06:39:21.750Z,93.10
2019-02-20T06:41:50.135Z,93.30
2019-02-20T06:44:18.484Z,93.30
2019-02-20T06:46:46.088Z,93.30
2019-02-20T06:49:13.724Z,93.40
2019-02-20T06:51:42.098Z,93.60
2019-02-20T06:54:09.680Z,93.60
2019-02-20T06:56:38.116Z,94.30
2019-02-20T06:59:05.705Z,94.30
2019-02-20T07:01:33.343Z,93.90
2019-02-20T07:04:00.953Z,93.90
2019-02-20T07:06:37.197Z,94.00
2019-02-20T07:09:16.488Z,93.90
2019-02-20T07:12:02.578Z,94.00
2019-02-20T07:14:50.987Z,94.00
2019-02-20T07:17:34.102Z,94.00
2019-02-20T07:20:19.963Z,94.00
2019-02-20T07:23:05.742Z,93.80
2019-02-20T07:25:33.413Z,93.90
2019-02-20T07:28:18.853Z,94.00
2019-02-20T07:30:46.472Z,94.00
2019-02-20T07:33:14.422Z,94.00
2019-02-20T07:35:42.004Z,94.10
2019-02-20T07:38:09.633Z,94.10
2019-02-20T07:40:37.222Z,94.00
2019-02-20T07:43:04.820Z,94.00
2019-02-20T07:45:32.513Z,93.70
2019-02-20T07:48:00.838Z,92.80
2019-02-20T07:50:28.424Z,92.80
2019-02-20T07:52:56.106Z,92.30
2019-02-20T07:55:23.683Z,92.40
2019-02-20T07:57:51.257Z,92.50
2019-02-20T08:00:18.914Z,92.70
2019-02-20T08:02:46.494Z,92.80
2019-02-20T08:05:14.069Z,92.80
2019-02-20T08:07:41.713Z,92.90
2019-02-20T08:10:09.320Z,92.90
2019-02-20T08:12:37.935Z,93.00
2019-02-20T08:15:05.580Z,92.90
2019-02-20T08:17:33.154Z,92.60
2019-02-20T08:20:00.759Z,92.30
2019-02-20T08:22:28.391Z,92.30
2019-02-20T08:24:56.005Z,92.40
2019-02-20T08:27:24.360Z,92.50
2019-02-20T08:29:52.418Z,92.70
2019-02-20T08:32:20.014Z,92.80
2019-02-20T08:34:47.598Z,92.70
2019-02-20T08:37:15.738Z,92.80
2019-02-20T08:39:43.349Z,92.90
2019-02-20T08:42:10.930Z,93.10
2019-02-20T08:44:38.560Z,93.10
2019-02-20T08:47:06.143Z,93.20
2019-02-20T08:49:33.732Z,93.30
2019-02-20T08:52:02.251Z,93.50
2019-02-20T08:54:29.849Z,93.70
2019-02-20T08:56:57.446Z,93.40
2019-02-20T08:59:25.112Z,92.90
2019-02-20T09:01:52.682Z,92.80
2019-02-20T09:04:20.271Z,92.70
2019-02-20T09:06:47.931Z,92.70
2019-02-20T09:09:15.486Z,92.70
2019-02-20T09:11:43.067Z,92.40
2019-02-20T09:14:11.105Z,92.00
2019-02-20T09:16:38.701Z,91.90
2019-02-20T09:19:06.870Z,91.90
2019-02-20T09:21:34.826Z,92.10
2019-02-20T09:24:03.177Z,91.70
2019-02-20T09:26:30.768Z,91.70
2019-02-20T09:28:59.640Z,91.70
2019-02-20T09:31:27.254Z,91.70
2019-02-20T09:33:56.656Z,91.90
2019-02-20T09:36:22.494Z,91.90
2019-02-20T09:38:50.071Z,91.80
2019-02-20T09:41:17.662Z,91.80
2019-02-20T09:43:45.289Z,91.80
2019-02-20T09:46:12.868Z,91.90
2019-02-20T09:48:40.451Z,91.90
2019-02-20T09:51:09.941Z,92.00
2019-02-20T09:53:37.889Z,92.00
2019-02-20T09:56:05.483Z,91.70
2019-02-20T09:58:33.933Z,91.30
2019-02-20T10:01:02.903Z,91.10
2019-02-20T10:03:29.114Z,91.00
2019-02-20T10:05:57.155Z,90.80
2019-02-20T10:08:24.773Z,90.80
2019-02-20T10:10:52.590Z,90.80
2019-02-20T10:13:20.261Z,90.80
2019-02-20T10:15:48.624Z,90.70
2019-02-20T10:18:16.221Z,90.70
2019-02-20T10:20:43.852Z,90.60
2019-02-20T10:23:11.427Z,90.50
2019-02-20T10:25:39.011Z,90.20
2019-02-20T10:28:07.917Z,89.70
2019-02-20T10:30:35.512Z,89.90
2019-02-20T10:33:03.101Z,89.80
2019-02-20T10:35:31.445Z,90.00
2019-02-20T10:37:59.040Z,89.90
2019-02-20T10:40:26.621Z,90.00
2019-02-20T10:42:55.043Z,90.00
2019-02-20T10:45:22.628Z,90.00
2019-02-20T10:47:50.213Z,90.00
2019-02-20T10:50:18.611Z,90.40
2019-02-20T10:52:46.190Z,90.10
2019-02-20T10:55:13.796Z,90.00
2019-02-20T10:57:41.396Z,89.70
2019-02-20T11:00:24.013Z,89.30
2019-02-20T11:02:45.099Z,88.90
2019-02-20T11:05:12.762Z,89.30
2019-02-20T11:07:42.360Z,89.70
2019-02-20T11:10:09.942Z,89.80
2019-02-20T11:12:38.732Z,89.70
2019-02-20T11:15:06.313Z,89.70
2019-02-20T11:17:33.892Z,90.00
2019-02-20T11:20:01.910Z,89.10
2019-02-20T11:22:29.501Z,88.90
2019-02-20T11:24:57.105Z,88.90
2019-02-20T11:27:25.412Z,88.40
2019-02-20T11:29:54.474Z,87.90
2019-02-20T11:32:22.061Z,87.40
2019-02-20T11:34:49.742Z,87.20
2019-02-20T11:37:17.286Z,87.00
2019-02-20T11:39:44.874Z,86.60
2019-02-20T11:42:13.375Z,85.30
2019-02-20T11:44:40.928Z,85.30
2019-02-20T11:47:08.516Z,84.30
2019-02-20T11:49:36.238Z,83.20
2019-02-20T11:52:04.585Z,83.10
2019-02-20T11:54:32.171Z,83.10
2019-02-20T11:57:00.642Z,83.20
2019-02-20T11:59:28.254Z,83.10
2019-02-20T12:01:55.860Z,83.00
2019-02-20T12:04:24.254Z,82.00
2019-02-20T12:06:51.858Z,82.50
2019-02-20T12:09:19.446Z,81.10
2019-02-20T12:11:47.231Z,80.20
2019-02-20T12:14:14.779Z,79.90
2019-02-20T12:16:42.846Z,79.40
2019-02-20T12:19:10.485Z,79.00
2019-02-20T12:21:38.078Z,78.50
2019-02-20T12:24:05.685Z,78.30
2019-02-20T12:26:35.258Z,78.20
2019-02-20T12:29:01.475Z,77.90
2019-02-20T12:31:29.077Z,77.60
2019-02-20T12:34:01.567Z,76.70
2019-02-20T12:36:27.497Z,76.70
2019-02-20T12:38:55.113Z,76.60
2019-02-20T12:41:22.811Z,76.30
2019-02-20T12:43:51.159Z,75.60
2019-02-20T12:46:19.208Z,75.60
2019-02-20T12:48:46.986Z,75.50
2019-02-20T12:51:14.587Z,73.80
2019-02-20T12:53:43.631Z,73.30
2019-02-20T12:56:10.617Z,73.30
2019-02-20T12:58:38.412Z,73.50
2019-02-20T13:01:06.571Z,73.30
2019-02-20T13:03:35.853Z,73.20
2019-02-20T13:06:03.409Z,73.20
2019-02-20T13:08:30.992Z,72.70
2019-02-20T13:10:59.394Z,71.50
2019-02-20T13:13:26.976Z,71.50
2019-02-20T13:15:54.551Z,70.80
2019-02-20T13:18:22.178Z,70.10
2019-02-20T13:20:49.762Z,69.90
2019-02-20T13:23:17.642Z,69.80
2019-02-20T13:25:45.296Z,69.90
2019-02-20T13:28:12.903Z,69.70
2019-02-20T13:30:40.506Z,69.20
2019-02-20T13:33:08.541Z,69.10
2019-02-20T13:35:36.120Z,68.50
2019-02-20T13:38:03.698Z,68.50
2019-02-20T13:40:31.365Z,68.40
2019-02-20T13:42:59.682Z,66.80
2019-02-20T13:45:27.257Z,66.80
2019-02-20T13:47:54.888Z,65.80
2019-02-20T13:50:22.487Z,64.40
2019-02-20T13:52:52.311Z,63.80
2019-02-20T13:55:17.733Z,63.50
2019-02-20T13:57:46.079Z,63.60
2019-02-20T14:00:13.701Z,63.60
2019-02-20T14:02:41.358Z,63.60
2019-02-20T14:05:08.971Z,62.30
2019-02-20T14:07:37.020Z,62.00
2019-02-20T14:10:05.521Z,61.80
2019-02-20T14:12:33.114Z,62.10
2019-02-20T14:15:00.700Z,60.50
2019-02-20T14:17:28.576Z,59.80
2019-02-20T14:19:56.160Z,60.00
2019-02-20T14:22:23.731Z,59.80
2019-02-20T14:24:51.369Z,59.70
2019-02-20T14:27:18.947Z,59.60
2019-02-20T14:29:48.700Z,59.90
2019-02-20T14:32:16.344Z,60.00
2019-02-20T14:34:45.450Z,60.00
2019-02-20T14:37:12.663Z,60.70
2019-02-20T14:39:40.321Z,60.00
2019-02-20T14:42:07.910Z,59.70
2019-02-20T14:44:35.495Z,59.50
2019-02-20T14:47:04.246Z,58.80
2019-02-20T14:49:31.826Z,58.80
2019-02-20T14:51:59.401Z,58.70
2019-02-20T14:54:27.799Z,58.40
2019-02-20T14:56:56.141Z,58.40
2019-02-20T14:59:24.874Z,58.40
2019-02-20T15:01:52.573Z,58.50
2019-02-20T15:04:20.159Z,58.60
2019-02-20T15:06:47.736Z,58.80
2019-02-20T15:09:16.506Z,58.70
2019-02-20T15:11:44.079Z,58.60
2019-02-20T15:14:11.664Z,58.40
2019-02-20T15:16:39.333Z,58.40
2019-02-20T15:19:06.955Z,58.40
2019-02-20T15:21:34.496Z,58.60
2019-02-20T15:24:02.143Z,58.90
2019-02-20T15:26:29.739Z,58.50
2019-02-20T15:28:57.313Z,58.50
2019-02-20T15:31:33.407Z,58.50
2019-02-20T15:33:52.928Z,58.40
2019-02-20T15:36:20.511Z,58.50
2019-02-20T15:38:48.203Z,58.80
2019-02-20T15:41:15.786Z,58.30
2019-02-20T15:43:43.404Z,58.10
2019-02-20T15:46:10.992Z,58.00
2019-02-20T15:48:38.575Z,58.10
2019-02-20T15:51:06.156Z,58.10
2019-02-20T15:53:33.828Z,58.20
2019-02-20T15:56:01.410Z,58.10
2019-02-20T15:58:28.991Z,57.70
2019-02-20T16:00:57.859Z,57.50
2019-02-20T16:03:25.800Z,57.40
2019-02-20T16:05:53.376Z,57.70
2019-02-20T16:08:21.071Z,57.90
2019-02-20T16:10:49.432Z,58.10
2019-02-20T16:13:17.013Z,58.10
2019-02-20T16:15:45.772Z,57.70
2019-02-20T16:18:13.351Z,57.70
2019-02-20T16:20:40.928Z,57.90
2019-02-20T16:23:09.367Z,58.30
2019-02-20T16:25:36.948Z,58.20
2019-02-20T16:28:04.539Z,58.30
2019-02-20T16:30:32.156Z,58.40
2019-02-20T16:33:00.806Z,58.30
2019-02-20T16:35:27.325Z,58.30
2019-02-20T16:37:54.959Z,58.50
2019-02-20T16:40:22.539Z,58.60
2019-02-20T16:42:50.558Z,58.50
2019-02-20T16:45:21.184Z,58.60
2019-02-20T16:47:48.773Z,58.90
2019-02-20T16:50:16.346Z,59.40
2019-02-20T16:52:43.980Z,59.80
2019-02-20T16:55:18.946Z,60.00
2019-02-20T16:57:39.132Z,60.20
2019-02-20T17:00:09.920Z,60.40
2019-02-20T17:02:38.223Z,60.40
2019-02-20T17:05:13.096Z,61.00
2019-02-20T17:07:33.507Z,61.40
2019-02-20T17:10:01.123Z,61.30
2019-02-20T17:12:30.400Z,61.10
2019-02-20T17:14:56.329Z,61.60
2019-02-20T17:17:23.912Z,62.10
2019-02-20T17:19:51.502Z,62.50
2019-02-20T17:22:19.501Z,62.30
2019-02-20T17:24:47.099Z,62.70
2019-02-20T17:27:14.672Z,64.00
2019-02-20T17:29:42.418Z,64.00
2019-02-20T17:32:10.071Z,64.40
2019-02-20T17:34:37.619Z,64.40
2019-02-20T17:37:06.834Z,64.80
2019-02-20T17:39:34.419Z,64.70
2019-02-20T17:42:02.014Z,65.20
2019-02-20T17:44:30.749Z,66.40
2019-02-20T17:46:58.341Z,66.40
2019-02-20T17:49:25.960Z,66.80
2019-02-20T17:51:53.600Z,67.20
2019-02-20T17:54:21.195Z,67.60
2019-02-20T17:56:48.781Z,67.90
2019-02-20T17:59:16.833Z,68.10
2019-02-20T18:01:44.430Z,68.30
2019-02-20T18:04:12.048Z,68.70
2019-02-20T18:06:40.474Z,69.10
2019-02-20T18:09:08.053Z,69.50
2019-02-20T18:11:35.626Z,69.90
2019-02-20T18:14:03.331Z,70.20
2019-02-20T18:16:30.923Z,70.30
2019-02-20T18:18:58.502Z,70.80
2019-02-20T18:21:26.170Z,71.50
2019-02-20T18:23:53.766Z,70.90
2019-02-20T18:26:21.345Z,71.10
2019-02-20T18:28:48.978Z,71.40
2019-02-20T18:31:17.011Z,71.50
2019-02-20T18:33:44.556Z,71.80
2019-02-20T18:36:12.239Z,72.10
2019-02-20T18:38:39.766Z,73.10
2019-02-20T18:41:07.361Z,72.60
2019-02-20T18:43:35.510Z,72.80
2019-02-20T18:46:03.145Z,73.30
2019-02-20T18:48:30.734Z,73.60
2019-02-20T18:50:58.893Z,73.90
2019-02-20T18:53:26.485Z,74.10
2019-02-20T18:55:56.048Z,74.40
2019-02-20T18:58:21.752Z,74.80
2019-02-20T19:00:50.098Z,75.60
2019-02-20T19:03:17.715Z,75.50
2019-02-20T19:05:46.064Z,76.20
2019-02-20T19:08:37.353Z,76.10
2019-02-20T19:11:29.968Z,76.70
2019-02-20T19:14:18.406Z,76.60
2019-02-20T19:17:00.794Z,77.10
2019-02-20T19:19:31.078Z,78.00
2019-02-20T19:22:19.565Z,77.40
2019-02-20T19:25:20.856Z,77.60
2019-02-20T19:27:57.448Z,77.80
2019-02-20T19:30:40.164Z,78.00
2019-02-20T19:33:09.932Z,78.10
2019-02-20T19:35:43.142Z,78.90
2019-02-20T19:38:28.851Z,78.20
2019-02-20T19:41:26.952Z,78.30
2019-02-20T19:43:58.359Z,78.60
2019-02-20T19:46:59.624Z,78.60
2019-02-20T19:49:48.506Z,78.90
2019-02-20T19:52:32.448Z,79.30
2019-02-20T19:55:10.342Z,79.70
2019-02-20T19:58:09.647Z,80.00
2019-02-20T20:00:48.266Z,80.20
2019-02-20T20:03:33.834Z,80.40
2019-02-20T20:06:19.192Z,80.70
2019-02-20T20:08:51.926Z,81.00
2019-02-20T20:11:49.839Z,81.40
2019-02-20T20:14:25.612Z,81.50
2019-02-20T20:16:53.185Z,81.60
2019-02-20T20:19:31.013Z,81.80
2019-02-20T20:22:28.617Z,81.80
2019-02-20T20:25:02.845Z,82.80
2019-02-20T20:27:45.177Z,82.10
2019-02-20T20:30:15.447Z,82.30
2019-02-20T20:32:58.333Z,82.40
2019-02-20T20:35:37.602Z,82.40
2019-02-20T20:38:17.392Z,82.60
2019-02-20T20:41:03.417Z,82.60
2019-02-20T20:43:49.072Z,82.70
2019-02-20T20:46:19.239Z,82.90
2019-02-20T20:48:49.594Z,82.90
2019-02-20T20:51:17.185Z,83.20
2019-02-20T20:53:59.453Z,83.40
2019-02-20T20:56:38.734Z,83.50
2019-02-20T20:59:18.089Z,83.30
2019-02-20T21:01:57.172Z,83.20
2019-02-20T21:04:30.355Z,83.30
2019-02-20T21:07:00.738Z,83.50
2019-02-20T21:09:52.533Z,83.70
2019-02-20T21:12:47.320Z,84.00
2019-02-20T21:15:52.251Z,84.20
2019-02-20T21:18:43.839Z,84.40
2019-02-20T21:21:11.475Z,84.70
2019-02-20T21:23:42.028Z,84.80
2019-02-20T21:26:12.738Z,84.90
2019-02-20T21:28:48.823Z,84.80
2019-02-20T21:31:50.406Z,84.80
2019-02-20T21:34:41.992Z,84.80
2019-02-20T21:37:15.514Z,85.10
2019-02-20T21:39:51.697Z,83.90
2019-02-20T21:42:35.152Z,83.60
2019-02-20T21:45:20.747Z,83.60
2019-02-20T21:47:54.173Z,83.90
2019-02-20T21:50:49.123Z,84.30
2019-02-20T21:53:16.699Z,84.80
2019-02-20T21:56:04.933Z,85.40
2019-02-20T21:58:35.104Z,85.80
2019-02-20T22:01:02.703Z,85.80
2019-02-20T22:03:45.484Z,86.00
2019-02-20T22:06:30.864Z,86.20
2019-02-20T22:09:32.017Z,86.30
2019-02-20T22:11:59.599Z,87.10
2019-02-20T22:14:44.731Z,86.30
2019-02-20T22:17:27.099Z,86.00
2019-02-20T22:20:10.535Z,85.90
2019-02-20T22:22:41.515Z,85.90
2019-02-20T22:25:45.391Z,85.90
2019-02-20T22:28:21.298Z,85.80
2019-02-20T22:31:00.874Z,85.90
2019-02-20T22:33:38.398Z,86.80
2019-02-20T22:36:30.866Z,86.10
2019-02-20T22:39:19.701Z,86.30
2019-02-20T22:41:59.325Z,86.20
2019-02-20T22:45:03.111Z,86.10
2019-02-20T22:47:42.894Z,86.40
2019-02-20T22:50:14.746Z,86.10
2019-02-20T22:52:58.847Z,85.80
2019-02-20T22:55:41.684Z,84.90
2019-02-20T22:58:10.022Z,85.30
2019-02-20T23:00:52.091Z,85.30
2019-02-20T23:03:32.010Z,86.40
2019-02-20T23:06:20.421Z,86.40
2019-02-20T23:09:02.756Z,87.80
2019-02-20T23:11:50.672Z,87.60
2019-02-20T23:14:33.680Z,86.60
2019-02-20T23:17:01.270Z,86.70
2019-02-20T23:19:28.842Z,86.80
2019-02-20T23:21:56.453Z,87.00
2019-02-20T23:24:24.798Z,87.20
2019-02-20T23:26:52.385Z,87.20
2019-02-20T23:29:21.130Z,88.40
2019-02-20T23:31:48.715Z,87.60
2019-02-20T23:34:16.301Z,87.70
2019-02-20T23:36:44.682Z,88.90
2019-02-20T23:39:13.032Z,88.20
2019-02-20T23:41:40.615Z,88.10
2019-02-20T23:44:08.609Z,88.10
2019-02-20T23:46:36.181Z,88.20
2019-02-20T23:49:03.778Z,88.40
2019-02-20T23:51:31.427Z,88.70
2019-02-20T23:53:59.028Z,88.90
2019-02-20T23:56:26.624Z,89.10
2019-02-20T23:58:54.273Z,89.20
